sensor_id;sensor_type;location;lat;lon;timestamp;pressure;altitude;pressure_sealevel;temperature;humidity
11172;BME280;5642;50.830;12.082;2023-04-27T00:01:16;99727.34;;;7.69;34.17
11172;BME280;5642;50.830;12.082;2023-04-27T00:03:43;99710.94;;;7.61;34.13
11172;BME280;5642;50.830;12.082;2023-04-27T00:06:17;99702.34;;;7.56;34.50
11172;BME280;5642;50.830;12.082;2023-04-27T00:08:47;99716.34;;;7.48;34.24
11172;BME280;5642;50.830;12.082;2023-04-27T00:11:14;99723.38;;;7.42;34.37
11172;BME280;5642;50.830;12.082;2023-04-27T00:13:45;99714.81;;;7.34;34.82
11172;BME280;5642;50.830;12.082;2023-04-27T00:16:12;99709.69;;;7.28;34.61
11172;BME280;5642;50.830;12.082;2023-04-27T00:18:45;99711.50;;;7.23;34.57
11172;BME280;5642;50.830;12.082;2023-04-27T00:21:24;99708.13;;;7.16;34.85
11172;BME280;5642;50.830;12.082;2023-04-27T00:24:02;99709.03;;;7.12;34.58
11172;BME280;5642;50.830;12.082;2023-04-27T00:26:34;99700.41;;;7.08;34.95
11172;BME280;5642;50.830;12.082;2023-04-27T00:29:00;99680.63;;;6.91;35.05
11172;BME280;5642;50.830;12.082;2023-04-27T00:31:31;99697.03;;;6.97;34.71
11172;BME280;5642;50.830;12.082;2023-04-27T00:33:58;99705.72;;;6.98;34.79
11172;BME280;5642;50.830;12.082;2023-04-27T00:36:29;99705.81;;;6.92;34.71
11172;BME280;5642;50.830;12.082;2023-04-27T00:39:06;99712.75;;;6.90;34.88
11172;BME280;5642;50.830;12.082;2023-04-27T00:41:43;99717.16;;;6.86;34.91
11172;BME280;5642;50.830;12.082;2023-04-27T00:44:12;99716.38;;;6.80;34.90
11172;BME280;5642;50.830;12.082;2023-04-27T00:46:38;99716.44;;;6.74;34.77
11172;BME280;5642;50.830;12.082;2023-04-27T00:49:18;99716.41;;;6.77;35.11
11172;BME280;5642;50.830;12.082;2023-04-27T00:51:48;99717.31;;;6.73;34.86
11172;BME280;5642;50.830;12.082;2023-04-27T00:54:20;99726.88;;;6.69;34.90
11172;BME280;5642;50.830;12.082;2023-04-27T00:56:51;99707.06;;;6.59;34.97
11172;BME280;5642;50.830;12.082;2023-04-27T00:59:18;99728.69;;;6.65;35.16
11172;BME280;5642;50.830;12.082;2023-04-27T01:01:48;99725.22;;;6.62;34.92
11172;BME280;5642;50.830;12.082;2023-04-27T01:04:46;99729.63;;;6.58;34.94
11172;BME280;5642;50.830;12.082;2023-04-27T01:07:13;99731.44;;;6.49;35.10
11172;BME280;5642;50.830;12.082;2023-04-27T01:09:41;99729.72;;;6.48;35.12
11172;BME280;5642;50.830;12.082;2023-04-27T01:12:16;99734.91;;;6.49;35.04
11172;BME280;5642;50.830;12.082;2023-04-27T01:14:46;99734.91;;;6.48;35.01
11172;BME280;5642;50.830;12.082;2023-04-27T01:17:14;99731.50;;;6.44;35.08
11172;BME280;5642;50.830;12.082;2023-04-27T01:20:11;99734.09;;;6.43;35.16
11172;BME280;5642;50.830;12.082;2023-04-27T01:22:38;99738.56;;;6.30;35.08
11172;BME280;5642;50.830;12.082;2023-04-27T01:25:24;99734.25;;;6.27;35.15
11172;BME280;5642;50.830;12.082;2023-04-27T01:28:10;99737.72;;;6.26;35.26
11172;BME280;5642;50.830;12.082;2023-04-27T01:31:01;99733.44;;;6.21;35.41
11172;BME280;5642;50.830;12.082;2023-04-27T01:33:47;99731.75;;;6.15;35.36
11172;BME280;5642;50.830;12.082;2023-04-27T01:36:48;99739.56;;;6.14;35.42
11172;BME280;5642;50.830;12.082;2023-04-27T01:39:31;99729.25;;;6.05;34.96
11172;BME280;5642;50.830;12.082;2023-04-27T01:42:34;99740.50;;;6.07;35.15
11172;BME280;5642;50.830;12.082;2023-04-27T01:45:20;99737.97;;;5.98;35.17
11172;BME280;5642;50.830;12.082;2023-04-27T01:48:08;99739.72;;;5.96;35.34
11172;BME280;5642;50.830;12.082;2023-04-27T01:50:54;99743.22;;;5.92;35.25
11172;BME280;5642;50.830;12.082;2023-04-27T01:53:40;99747.59;;;5.89;35.30
11172;BME280;5642;50.830;12.082;2023-04-27T01:56:26;99751.06;;;5.88;35.59
11172;BME280;5642;50.830;12.082;2023-04-27T01:58:53;99744.09;;;5.90;35.31
11172;BME280;5642;50.830;12.082;2023-04-27T02:01:19;99744.09;;;5.90;35.75
11172;BME280;5642;50.830;12.082;2023-04-27T02:03:45;99741.53;;;5.89;35.58
11172;BME280;5642;50.830;12.082;2023-04-27T02:06:12;99747.53;;;5.91;35.69
11172;BME280;5642;50.830;12.082;2023-04-27T02:08:38;99746.69;;;5.90;35.24
11172;BME280;5642;50.830;12.082;2023-04-27T02:11:04;99746.69;;;5.92;35.64
11172;BME280;5642;50.830;12.082;2023-04-27T02:13:30;99738.03;;;5.85;35.26
11172;BME280;5642;50.830;12.082;2023-04-27T02:15:56;99747.53;;;5.96;35.38
11172;BME280;5642;50.830;12.082;2023-04-27T02:18:22;99746.66;;;5.95;35.62
11172;BME280;5642;50.830;12.082;2023-04-27T02:20:49;99750.09;;;6.00;35.32
11172;BME280;5642;50.830;12.082;2023-04-27T02:23:15;99744.88;;;6.00;35.50
11172;BME280;5642;50.830;12.082;2023-04-27T02:25:42;99744.00;;;6.03;35.42
11172;BME280;5642;50.830;12.082;2023-04-27T02:28:12;99744.88;;;6.00;35.38
11172;BME280;5642;50.830;12.082;2023-04-27T02:30:38;99756.19;;;5.96;35.48
11172;BME280;5642;50.830;12.082;2023-04-27T02:33:05;99750.19;;;5.89;35.16
11172;BME280;5642;50.830;12.082;2023-04-27T02:35:31;99761.41;;;5.96;35.32
11172;BME280;5642;50.830;12.082;2023-04-27T02:37:58;99771.72;;;6.07;35.35
11172;BME280;5642;50.830;12.082;2023-04-27T02:40:25;99768.13;;;6.18;35.34
11172;BME280;5642;50.830;12.082;2023-04-27T02:42:51;99779.34;;;6.29;35.44
11172;BME280;5642;50.830;12.082;2023-04-27T02:45:17;99771.41;;;6.40;35.24
11172;BME280;5642;50.830;12.082;2023-04-27T02:47:43;99758.34;;;6.49;35.25
11172;BME280;5642;50.830;12.082;2023-04-27T02:50:09;99757.41;;;6.56;35.07
11172;BME280;5642;50.830;12.082;2023-04-27T02:52:35;99765.13;;;6.65;35.08
11172;BME280;5642;50.830;12.082;2023-04-27T02:55:01;99773.72;;;6.72;35.25
11172;BME280;5642;50.830;12.082;2023-04-27T02:57:27;99767.59;;;6.76;34.68
11172;BME280;5642;50.830;12.082;2023-04-27T02:59:53;99769.31;;;6.82;34.80
11172;BME280;5642;50.830;12.082;2023-04-27T03:02:19;99769.25;;;6.86;35.11
11172;BME280;5642;50.830;12.082;2023-04-27T03:04:51;99764.88;;;6.88;35.30
11172;BME280;5642;50.830;12.082;2023-04-27T03:07:20;99762.28;;;6.88;35.28
11172;BME280;5642;50.830;12.082;2023-04-27T03:09:46;99761.41;;;6.88;35.42
11172;BME280;5642;50.830;12.082;2023-04-27T03:12:12;99771.78;;;6.91;35.07
11172;BME280;5642;50.830;12.082;2023-04-27T03:14:38;99777.84;;;6.91;35.11
11172;BME280;5642;50.830;12.082;2023-04-27T03:17:05;99787.47;;;6.88;34.96
11172;BME280;5642;50.830;12.082;2023-04-27T03:19:33;99774.53;;;6.80;34.97
11172;BME280;5642;50.830;12.082;2023-04-27T03:22:08;99783.97;;;6.89;35.33
11172;BME280;5642;50.830;12.082;2023-04-27T03:24:53;99784.81;;;6.91;35.14
11172;BME280;5642;50.830;12.082;2023-04-27T03:27:19;99790.88;;;6.91;35.39
11172;BME280;5642;50.830;12.082;2023-04-27T03:29:45;99770.03;;;6.91;35.23
11172;BME280;5642;50.830;12.082;2023-04-27T03:32:11;99782.09;;;7.01;35.55
11172;BME280;5642;50.830;12.082;2023-04-27T03:34:37;99780.47;;;6.91;35.47
11172;BME280;5642;50.830;12.082;2023-04-27T03:37:03;99787.41;;;6.89;35.17
11172;BME280;5642;50.830;12.082;2023-04-27T03:39:31;99789.13;;;6.93;35.26
11172;BME280;5642;50.830;12.082;2023-04-27T03:41:56;99791.66;;;7.01;34.93
11172;BME280;5642;50.830;12.082;2023-04-27T03:44:22;99793.38;;;7.00;35.11
11172;BME280;5642;50.830;12.082;2023-04-27T03:46:49;99800.31;;;7.01;35.57
11172;BME280;5642;50.830;12.082;2023-04-27T03:49:17;99804.59;;;7.07;35.94
11172;BME280;5642;50.830;12.082;2023-04-27T03:51:43;99795.84;;;7.13;35.41
11172;BME280;5642;50.830;12.082;2023-04-27T03:54:37;99803.56;;;7.23;35.45
11172;BME280;5642;50.830;12.082;2023-04-27T03:57:20;99806.94;;;7.30;35.61
11172;BME280;5642;50.830;12.082;2023-04-27T03:59:49;99800.81;;;7.32;35.30
11172;BME280;5642;50.830;12.082;2023-04-27T04:02:16;99798.13;;;7.40;35.13
11172;BME280;5642;50.830;12.082;2023-04-27T04:04:42;99804.06;;;7.51;35.39
11172;BME280;5642;50.830;12.082;2023-04-27T04:07:09;99792.00;;;7.45;35.24
11172;BME280;5642;50.830;12.082;2023-04-27T04:09:35;99804.91;;;7.53;35.56
11172;BME280;5642;50.830;12.082;2023-04-27T04:12:00;99809.19;;;7.57;34.92
11172;BME280;5642;50.830;12.082;2023-04-27T04:14:32;99816.94;;;7.65;35.43
11172;BME280;5642;50.830;12.082;2023-04-27T04:16:58;99813.38;;;7.70;35.02
11172;BME280;5642;50.830;12.082;2023-04-27T04:19:24;99812.50;;;7.70;35.34
11172;BME280;5642;50.830;12.082;2023-04-27T04:22:08;99803.88;;;7.66;35.73
11172;BME280;5642;50.830;12.082;2023-04-27T04:24:34;99815.09;;;7.71;35.24
11172;BME280;5642;50.830;12.082;2023-04-27T04:27:00;99815.13;;;7.68;34.93
11172;BME280;5642;50.830;12.082;2023-04-27T04:29:27;99817.81;;;7.64;35.30
11172;BME280;5642;50.830;12.082;2023-04-27T04:31:56;99810.16;;;7.52;35.11
11172;BME280;5642;50.830;12.082;2023-04-27T04:34:23;99824.06;;;7.52;35.60
11172;BME280;5642;50.830;12.082;2023-04-27T04:36:49;99821.44;;;7.52;35.32
11172;BME280;5642;50.830;12.082;2023-04-27T04:39:19;99829.19;;;7.57;35.60
11172;BME280;5642;50.830;12.082;2023-04-27T04:41:45;99817.78;;;7.67;35.45
11172;BME280;5642;50.830;12.082;2023-04-27T04:44:11;99823.69;;;7.79;35.75
11172;BME280;5642;50.830;12.082;2023-04-27T04:46:37;99812.31;;;7.82;35.52
11172;BME280;5642;50.830;12.082;2023-04-27T04:49:03;99822.50;;;8.00;35.51
11172;BME280;5642;50.830;12.082;2023-04-27T04:51:32;99824.91;;;8.15;35.29
11172;BME280;5642;50.830;12.082;2023-04-27T04:53:58;99822.06;;;8.29;35.01
11172;BME280;5642;50.830;12.082;2023-04-27T04:56:24;99814.09;;;8.40;35.08
11172;BME280;5642;50.830;12.082;2023-04-27T04:58:50;99813.78;;;8.59;35.32
11172;BME280;5642;50.830;12.082;2023-04-27T05:01:16;99806.22;;;8.93;34.67
11172;BME280;5642;50.830;12.082;2023-04-27T05:03:43;99807.56;;;9.13;34.98
11172;BME280;5642;50.830;12.082;2023-04-27T05:06:09;99818.75;;;9.19;34.74
11172;BME280;5642;50.830;12.082;2023-04-27T05:08:35;99809.06;;;9.24;34.90
11172;BME280;5642;50.830;12.082;2023-04-27T05:11:01;99811.53;;;9.32;34.67
11172;BME280;5642;50.830;12.082;2023-04-27T05:13:28;99817.31;;;9.48;34.68
11172;BME280;5642;50.830;12.082;2023-04-27T05:15:54;99820.75;;;9.51;34.54
11172;BME280;5642;50.830;12.082;2023-04-27T05:18:20;99825.97;;;9.51;34.71
11172;BME280;5642;50.830;12.082;2023-04-27T05:20:46;99825.84;;;9.57;35.02
11172;BME280;5642;50.830;12.082;2023-04-27T05:23:12;99826.59;;;9.64;35.21
11172;BME280;5642;50.830;12.082;2023-04-27T05:25:38;99822.94;;;9.71;35.05
11172;BME280;5642;50.830;12.082;2023-04-27T05:28:08;99821.91;;;9.78;34.75
11172;BME280;5642;50.830;12.082;2023-04-27T05:30:35;99810.47;;;9.82;35.02
11172;BME280;5642;50.830;12.082;2023-04-27T05:33:02;99824.19;;;9.93;35.25
11172;BME280;5642;50.830;12.082;2023-04-27T05:35:30;99807.38;;;10.03;34.73
11172;BME280;5642;50.830;12.082;2023-04-27T05:37:56;99801.50;;;10.31;34.55
11172;BME280;5642;50.830;12.082;2023-04-27T05:40:22;99814.91;;;10.88;34.03
11172;BME280;5642;50.830;12.082;2023-04-27T05:42:59;99809.97;;;11.41;33.65
11172;BME280;5642;50.830;12.082;2023-04-27T05:45:28;99798.91;;;11.90;33.14
11172;BME280;5642;50.830;12.082;2023-04-27T05:47:53;99799.78;;;12.18;33.12
11172;BME280;5642;50.830;12.082;2023-04-27T05:50:20;99801.56;;;12.70;32.84
11172;BME280;5642;50.830;12.082;2023-04-27T05:52:46;99797.47;;;13.83;32.02
11172;BME280;5642;50.830;12.082;2023-04-27T05:55:12;99785.34;;;15.06;30.92
11172;BME280;5642;50.830;12.082;2023-04-27T05:57:38;99764.66;;;16.11;30.20
11172;BME280;5642;50.830;12.082;2023-04-27T06:00:04;99762.00;;;17.16;30.11
11172;BME280;5642;50.830;12.082;2023-04-27T06:02:35;99778.63;;;18.15;29.31
11172;BME280;5642;50.830;12.082;2023-04-27T06:05:01;99771.75;;;19.02;29.00
11172;BME280;5642;50.830;12.082;2023-04-27T06:07:28;99768.03;;;19.90;28.65
11172;BME280;5642;50.830;12.082;2023-04-27T06:09:54;99756.81;;;20.80;28.34
11172;BME280;5642;50.830;12.082;2023-04-27T06:12:24;99769.00;;;21.60;27.98
11172;BME280;5642;50.830;12.082;2023-04-27T06:14:51;99756.75;;;22.30;27.85
11172;BME280;5642;50.830;12.082;2023-04-27T06:17:17;99767.56;;;22.98;27.64
11172;BME280;5642;50.830;12.082;2023-04-27T06:19:43;99761.56;;;23.30;27.52
11172;BME280;5642;50.830;12.082;2023-04-27T06:22:10;99765.84;;;23.55;27.64
11172;BME280;5642;50.830;12.082;2023-04-27T06:24:36;99777.63;;;23.74;27.72
11172;BME280;5642;50.830;12.082;2023-04-27T06:27:02;99783.91;;;24.07;27.28
11172;BME280;5642;50.830;12.082;2023-04-27T06:29:28;99785.50;;;24.52;27.62
11172;BME280;5642;50.830;12.082;2023-04-27T06:31:54;99785.44;;;25.16;27.01
11172;BME280;5642;50.830;12.082;2023-04-27T06:34:20;99794.31;;;25.89;27.10
11172;BME280;5642;50.830;12.082;2023-04-27T06:36:46;99788.13;;;26.57;26.73
11172;BME280;5642;50.830;12.082;2023-04-27T06:39:12;99789.13;;;26.95;26.71
11172;BME280;5642;50.830;12.082;2023-04-27T06:41:39;99789.81;;;26.97;26.62
11172;BME280;5642;50.830;12.082;2023-04-27T06:44:05;99777.09;;;26.99;26.63
11172;BME280;5642;50.830;12.082;2023-04-27T06:46:31;99777.69;;;27.39;26.53
11172;BME280;5642;50.830;12.082;2023-04-27T06:49:07;99782.97;;;28.05;26.05
11172;BME280;5642;50.830;12.082;2023-04-27T06:51:34;99781.44;;;28.65;25.96
11172;BME280;5642;50.830;12.082;2023-04-27T06:54:00;99787.81;;;29.43;25.61
11172;BME280;5642;50.830;12.082;2023-04-27T06:56:29;99792.56;;;30.09;25.30
11172;BME280;5642;50.830;12.082;2023-04-27T06:58:55;99782.44;;;30.11;25.28
11172;BME280;5642;50.830;12.082;2023-04-27T07:01:21;99783.47;;;29.76;25.60
11172;BME280;5642;50.830;12.082;2023-04-27T07:03:48;99787.38;;;29.30;25.82
11172;BME280;5642;50.830;12.082;2023-04-27T07:06:14;99787.94;;;29.16;25.61
11172;BME280;5642;50.830;12.082;2023-04-27T07:08:40;99784.31;;;29.51;25.66
11172;BME280;5642;50.830;12.082;2023-04-27T07:11:06;99785.66;;;29.81;25.44
11172;BME280;5642;50.830;12.082;2023-04-27T07:13:32;99785.38;;;30.42;25.36
11172;BME280;5642;50.830;12.082;2023-04-27T07:15:59;99776.50;;;31.15;25.06
11172;BME280;5642;50.830;12.082;2023-04-27T07:18:37;99772.47;;;31.82;24.69
11172;BME280;5642;50.830;12.082;2023-04-27T07:21:03;99778.81;;;32.36;24.66
11172;BME280;5642;50.830;12.082;2023-04-27T07:23:30;99788.81;;;32.89;24.06
11172;BME280;5642;50.830;12.082;2023-04-27T07:25:57;99775.72;;;32.93;24.12
11172;BME280;5642;50.830;12.082;2023-04-27T07:28:24;99775.19;;;33.12;24.37
11172;BME280;5642;50.830;12.082;2023-04-27T07:30:50;99771.53;;;33.42;24.27
11172;BME280;5642;50.830;12.082;2023-04-27T07:33:19;99769.28;;;33.61;23.88
11172;BME280;5642;50.830;12.082;2023-04-27T07:35:46;99762.91;;;33.98;23.55
11172;BME280;5642;50.830;12.082;2023-04-27T07:38:15;99767.53;;;34.33;23.41
11172;BME280;5642;50.830;12.082;2023-04-27T07:40:42;99771.13;;;34.55;23.53
11172;BME280;5642;50.830;12.082;2023-04-27T07:43:08;99776.03;;;34.81;23.37
11172;BME280;5642;50.830;12.082;2023-04-27T07:45:34;99778.13;;;35.07;22.94
11172;BME280;5642;50.830;12.082;2023-04-27T07:48:03;99776.94;;;35.37;22.86
11172;BME280;5642;50.830;12.082;2023-04-27T07:50:30;99779.16;;;35.61;22.87
11172;BME280;5642;50.830;12.082;2023-04-27T07:52:57;99777.72;;;36.00;22.72
11172;BME280;5642;50.830;12.082;2023-04-27T07:55:24;99776.81;;;36.34;22.52
11172;BME280;5642;50.830;12.082;2023-04-27T07:57:53;99780.28;;;36.82;22.13
11172;BME280;5642;50.830;12.082;2023-04-27T08:00:20;99777.97;;;37.45;21.84
11172;BME280;5642;50.830;12.082;2023-04-27T08:02:47;99781.88;;;37.88;22.18
11172;BME280;5642;50.830;12.082;2023-04-27T08:05:13;99771.06;;;38.20;21.78
11172;BME280;5642;50.830;12.082;2023-04-27T08:07:40;99757.25;;;38.39;21.55
11172;BME280;5642;50.830;12.082;2023-04-27T08:10:07;99776.34;;;38.53;21.46
11172;BME280;5642;50.830;12.082;2023-04-27T08:12:33;99751.75;;;38.46;21.55
11172;BME280;5642;50.830;12.082;2023-04-27T08:14:59;99772.69;;;38.65;21.57
11172;BME280;5642;50.830;12.082;2023-04-27T08:17:25;99768.75;;;38.93;21.39
11172;BME280;5642;50.830;12.082;2023-04-27T08:19:54;99767.72;;;39.37;21.59
11172;BME280;5642;50.830;12.082;2023-04-27T08:22:20;99767.44;;;39.63;21.19
11172;BME280;5642;50.830;12.082;2023-04-27T08:24:46;99767.06;;;39.96;20.59
11172;BME280;5642;50.830;12.082;2023-04-27T08:27:13;99759.88;;;40.32;20.66
11172;BME280;5642;50.830;12.082;2023-04-27T08:29:47;99766.13;;;40.68;20.18
11172;BME280;5642;50.830;12.082;2023-04-27T08:32:44;99768.69;;;41.05;20.29
11172;BME280;5642;50.830;12.082;2023-04-27T08:35:10;99757.97;;;41.38;20.24
11172;BME280;5642;50.830;12.082;2023-04-27T08:37:37;99758.56;;;41.64;20.34
11172;BME280;5642;50.830;12.082;2023-04-27T08:40:18;99759.75;;;41.68;20.08
11172;BME280;5642;50.830;12.082;2023-04-27T08:42:53;99754.00;;;41.69;19.99
11172;BME280;5642;50.830;12.082;2023-04-27T08:45:22;99764.06;;;41.52;19.75
11172;BME280;5642;50.830;12.082;2023-04-27T08:47:49;99768.16;;;41.50;19.65
11172;BME280;5642;50.830;12.082;2023-04-27T08:50:15;99752.09;;;41.58;19.88
11172;BME280;5642;50.830;12.082;2023-04-27T08:52:46;99743.25;;;41.68;19.76
11172;BME280;5642;50.830;12.082;2023-04-27T08:55:13;99751.31;;;41.86;19.78
11172;BME280;5642;50.830;12.082;2023-04-27T08:57:39;99741.47;;;42.13;19.67
11172;BME280;5642;50.830;12.082;2023-04-27T09:00:06;99752.34;;;42.48;19.11
11172;BME280;5642;50.830;12.082;2023-04-27T09:02:47;99749.50;;;42.32;19.31
11172;BME280;5642;50.830;12.082;2023-04-27T09:05:20;99748.03;;;42.12;19.20
11172;BME280;5642;50.830;12.082;2023-04-27T09:08:04;99752.00;;;41.41;19.47
11172;BME280;5642;50.830;12.082;2023-04-27T09:10:43;99752.22;;;40.63;19.53
11172;BME280;5642;50.830;12.082;2023-04-27T09:13:10;99761.97;;;40.00;19.79
11172;BME280;5642;50.830;12.082;2023-04-27T09:15:50;99756.00;;;40.03;19.60
11172;BME280;5642;50.830;12.082;2023-04-27T09:18:21;99753.66;;;40.24;19.40
11172;BME280;5642;50.830;12.082;2023-04-27T09:20:51;99747.59;;;40.34;19.14
11172;BME280;5642;50.830;12.082;2023-04-27T09:23:30;99749.41;;;40.22;19.23
11172;BME280;5642;50.830;12.082;2023-04-27T09:25:58;99752.72;;;40.12;19.24
11172;BME280;5642;50.830;12.082;2023-04-27T09:28:26;99746.66;;;39.92;19.15
11172;BME280;5642;50.830;12.082;2023-04-27T09:30:56;99736.94;;;40.08;18.99
11172;BME280;5642;50.830;12.082;2023-04-27T09:33:32;99737.69;;;40.33;18.60
11172;BME280;5642;50.830;12.082;2023-04-27T09:36:00;99719.22;;;40.40;19.11
11172;BME280;5642;50.830;12.082;2023-04-27T09:38:28;99728.31;;;40.52;18.67
11172;BME280;5642;50.830;12.082;2023-04-27T09:40:55;99727.56;;;40.45;18.87
11172;BME280;5642;50.830;12.082;2023-04-27T09:43:22;99734.78;;;39.62;18.94
11172;BME280;5642;50.830;12.082;2023-04-27T09:45:50;99726.28;;;38.77;19.22
11172;BME280;5642;50.830;12.082;2023-04-27T09:48:16;99730.41;;;37.79;19.51
11172;BME280;5642;50.830;12.082;2023-04-27T09:50:44;99724.41;;;36.52;19.55
11172;BME280;5642;50.830;12.082;2023-04-27T09:53:48;99722.03;;;35.40;19.69
11172;BME280;5642;50.830;12.082;2023-04-27T09:56:41;99728.38;;;34.13;20.10
11172;BME280;5642;50.830;12.082;2023-04-27T10:02:05;99732.31;;;33.74;20.02
11172;BME280;5642;50.830;12.082;2023-04-27T10:07:25;99716.47;;;32.82;20.05
11172;BME280;5642;50.830;12.082;2023-04-27T10:09:52;99728.31;;;33.03;20.06
11172;BME280;5642;50.830;12.082;2023-04-27T10:14:51;99708.91;;;34.24;20.05
11172;BME280;5642;50.830;12.082;2023-04-27T10:17:22;99719.06;;;34.79;19.92
11172;BME280;5642;50.830;12.082;2023-04-27T10:19:56;99713.38;;;35.02;19.62
11172;BME280;5642;50.830;12.082;2023-04-27T10:22:24;99703.78;;;35.06;19.55
11172;BME280;5642;50.830;12.082;2023-04-27T10:25:12;99711.13;;;35.12;19.49
11172;BME280;5642;50.830;12.082;2023-04-27T10:27:38;99710.25;;;35.05;19.84
11172;BME280;5642;50.830;12.082;2023-04-27T10:30:10;99716.91;;;34.75;19.47
11172;BME280;5642;50.830;12.082;2023-04-27T10:32:37;99716.28;;;34.30;19.17
11172;BME280;5642;50.830;12.082;2023-04-27T10:35:07;99719.31;;;34.06;19.31
11172;BME280;5642;50.830;12.082;2023-04-27T10:37:38;99715.25;;;33.51;19.11
11172;BME280;5642;50.830;12.082;2023-04-27T10:40:07;99706.63;;;32.58;19.24
11172;BME280;5642;50.830;12.082;2023-04-27T10:42:35;99711.66;;;31.84;19.42
11172;BME280;5642;50.830;12.082;2023-04-27T10:45:01;99701.88;;;31.28;19.34
11172;BME280;5642;50.830;12.082;2023-04-27T10:47:42;99706.50;;;30.95;19.37
11172;BME280;5642;50.830;12.082;2023-04-27T10:50:11;99707.19;;;30.73;19.62
11172;BME280;5642;50.830;12.082;2023-04-27T10:52:44;99718.53;;;30.52;19.54
11172;BME280;5642;50.830;12.082;2023-04-27T10:55:34;99715.28;;;30.32;19.14
11172;BME280;5642;50.830;12.082;2023-04-27T10:58:00;99688.38;;;30.07;19.55
11172;BME280;5642;50.830;12.082;2023-04-27T11:00:35;99712.59;;;29.82;19.14
11172;BME280;5642;50.830;12.082;2023-04-27T11:05:39;99721.56;;;29.49;20.28
11172;BME280;5642;50.830;12.082;2023-04-27T11:08:14;99718.66;;;29.84;20.05
11172;BME280;5642;50.830;12.082;2023-04-27T11:10:50;99705.47;;;29.73;19.85
11172;BME280;5642;50.830;12.082;2023-04-27T11:13:19;99715.66;;;29.45;20.23
11172;BME280;5642;50.830;12.082;2023-04-27T11:15:51;99697.03;;;29.08;19.74
11172;BME280;5642;50.830;12.082;2023-04-27T11:18:25;99711.34;;;28.65;19.51
11172;BME280;5642;50.830;12.082;2023-04-27T11:21:15;99714.56;;;27.98;19.76
11172;BME280;5642;50.830;12.082;2023-04-27T11:24:03;99715.47;;;27.15;19.93
11172;BME280;5642;50.830;12.082;2023-04-27T11:26:29;99696.91;;;26.46;20.36
11172;BME280;5642;50.830;12.082;2023-04-27T11:28:59;99715.66;;;25.98;20.01
11172;BME280;5642;50.830;12.082;2023-04-27T11:31:28;99720.50;;;25.33;20.16
11172;BME280;5642;50.830;12.082;2023-04-27T11:34:03;99689.75;;;24.66;20.17
11172;BME280;5642;50.830;12.082;2023-04-27T11:36:31;99699.59;;;24.44;20.18
11172;BME280;5642;50.830;12.082;2023-04-27T11:38:57;99719.47;;;23.99;20.34
11172;BME280;5642;50.830;12.082;2023-04-27T11:41:35;99717.81;;;23.42;20.56
11172;BME280;5642;50.830;12.082;2023-04-27T11:44:17;99722.97;;;22.77;20.74
11172;BME280;5642;50.830;12.082;2023-04-27T11:46:46;99703.59;;;22.27;20.77
11172;BME280;5642;50.830;12.082;2023-04-27T11:49:12;99732.31;;;22.00;20.83
11172;BME280;5642;50.830;12.082;2023-04-27T11:51:41;99733.88;;;21.66;20.81
11172;BME280;5642;50.830;12.082;2023-04-27T11:54:09;99724.97;;;21.41;21.08
11172;BME280;5642;50.830;12.082;2023-04-27T11:56:40;99724.25;;;21.27;20.88
11172;BME280;5642;50.830;12.082;2023-04-27T11:59:20;99719.63;;;21.03;20.81
11172;BME280;5642;50.830;12.082;2023-04-27T12:01:48;99721.84;;;20.71;21.04
11172;BME280;5642;50.830;12.082;2023-04-27T12:04:17;99726.47;;;20.43;20.87
11172;BME280;5642;50.830;12.082;2023-04-27T12:06:43;99724.00;;;20.13;20.88
11172;BME280;5642;50.830;12.082;2023-04-27T12:09:09;99730.28;;;19.85;21.34
11172;BME280;5642;50.830;12.082;2023-04-27T12:11:36;99730.88;;;19.62;21.38
11172;BME280;5642;50.830;12.082;2023-04-27T12:14:02;99728.59;;;19.41;21.38
11172;BME280;5642;50.830;12.082;2023-04-27T12:16:29;99726.25;;;19.37;21.33
11172;BME280;5642;50.830;12.082;2023-04-27T12:19:02;99721.09;;;19.34;21.40
11172;BME280;5642;50.830;12.082;2023-04-27T12:21:29;99709.75;;;19.32;21.20
11172;BME280;5642;50.830;12.082;2023-04-27T12:23:57;99726.03;;;19.40;21.17
11172;BME280;5642;50.830;12.082;2023-04-27T12:26:23;99720.56;;;19.29;21.25
11172;BME280;5642;50.830;12.082;2023-04-27T12:28:51;99711.63;;;19.15;21.17
11172;BME280;5642;50.830;12.082;2023-04-27T12:31:17;99723.75;;;19.05;21.36
11172;BME280;5642;50.830;12.082;2023-04-27T12:33:47;99721.78;;;19.09;21.29
11172;BME280;5642;50.830;12.082;2023-04-27T12:36:15;99718.66;;;19.16;21.09
11172;BME280;5642;50.830;12.082;2023-04-27T12:38:41;99711.06;;;19.25;21.22
11172;BME280;5642;50.830;12.082;2023-04-27T12:41:07;99690.19;;;19.18;21.20
11172;BME280;5642;50.830;12.082;2023-04-27T12:43:33;99683.66;;;19.24;21.19
11172;BME280;5642;50.830;12.082;2023-04-27T12:46:03;99712.00;;;19.38;21.15
11172;BME280;5642;50.830;12.082;2023-04-27T12:48:29;99704.69;;;19.41;21.13
11172;BME280;5642;50.830;12.082;2023-04-27T12:50:56;99707.28;;;19.57;21.35
11172;BME280;5642;50.830;12.082;2023-04-27T12:53:22;99706.84;;;19.77;21.19
11172;BME280;5642;50.830;12.082;2023-04-27T12:55:48;99715.03;;;20.01;21.25
11172;BME280;5642;50.830;12.082;2023-04-27T12:58:18;99722.91;;;20.03;20.98
11172;BME280;5642;50.830;12.082;2023-04-27T13:00:45;99720.03;;;20.06;21.23
11172;BME280;5642;50.830;12.082;2023-04-27T13:03:11;99708.38;;;20.08;21.16
11172;BME280;5642;50.830;12.082;2023-04-27T13:05:55;99713.19;;;20.16;20.95
11172;BME280;5642;50.830;12.082;2023-04-27T13:08:21;99711.56;;;20.13;21.10
11172;BME280;5642;50.830;12.082;2023-04-27T13:10:47;99702.53;;;20.16;20.98
11172;BME280;5642;50.830;12.082;2023-04-27T13:13:17;99707.78;;;20.17;21.20
11172;BME280;5642;50.830;12.082;2023-04-27T13:15:43;99703.59;;;20.13;20.98
11172;BME280;5642;50.830;12.082;2023-04-27T13:18:09;99702.28;;;20.06;21.06
11172;BME280;5642;50.830;12.082;2023-04-27T13:20:35;99700.13;;;19.99;21.17
11172;BME280;5642;50.830;12.082;2023-04-27T13:23:03;99707.34;;;19.97;21.30
11172;BME280;5642;50.830;12.082;2023-04-27T13:25:30;99697.97;;;19.91;21.25
11172;BME280;5642;50.830;12.082;2023-04-27T13:27:56;99699.13;;;19.87;21.22
11172;BME280;5642;50.830;12.082;2023-04-27T13:30:22;99696.69;;;19.70;21.51